Observations for Trim Market St
| Time | AQI | Temp °C | Hum % | Pres Pa | CO μg/m³ | H₂S μg/m³ | NO μg/m³ | NO₂ μg/m³ | O₃ μg/m³ | SO₂ μg/m³ | PM1 μg/m³ | PM2.5 μg/m³ | PM10 μg/m³ |
|---|---|---|---|---|---|---|---|---|---|---|---|---|---|
| Thursday 27 August 2026 | |||||||||||||
| 00:17 | 3 | 16.8 | 82 | 2,147,483,647 | 0.28 | 0 | 2.07 | 6.91 | 49.32 | 0 | 17.81 | 18.45 | 27.57 |
| 00:16 | 3 | 16.8 | 82 | 2,147,483,647 | 0.29 | 0 | 2.07 | 6.8 | 48.03 | 0 | 17.1 | 20.33 | 30.91 |
| 00:15 | 3 | 16.8 | 82 | 2,147,483,647 | 0.29 | 0 | 2.07 | 7.66 | 51.04 | 0 | 17.1 | 20.81 | 31.5 |
| 00:14 | 3 | 16.8 | 82 | 2,147,483,647 | 0.28 | 0 | 2.07 | 7.47 | 48.35 | 0 | 15.68 | 19.4 | 30.38 |
| 00:13 | 3 | 16.8 | 82 | 2,147,483,647 | 0.28 | 0 | 2.07 | 6.97 | 50.53 | 0 | 17.81 | 20.81 | 30.94 |
| 00:12 | 3 | 16.8 | 82 | 2,147,483,647 | 0.29 | 0 | 2.06 | 7.27 | 45.9 | 0 | 17.81 | 19.87 | 30.38 |
| 00:11 | 3 | 16.8 | 82 | 2,147,483,647 | 0.29 | 0 | 2.06 | 7.17 | 48.83 | 0 | 17.81 | 20.34 | 32.05 |
| 00:10 | 3 | 16.8 | 82 | 2,147,483,647 | 0.29 | 0 | 2.06 | 10.99 | 54.18 | 0 | 17.81 | 20.35 | 32.08 |
| 00:09 | 3 | 16.8 | 82 | 2,147,483,647 | 0.29 | 0 | 2.07 | 6.48 | 55.05 | 0 | 19.24 | 21.29 | 33.19 |
| 00:06 | 3 | 16.9 | 82 | 2,147,483,647 | 0.28 | 0 | 2.05 | 7.4 | 52.2 | 0 | 18.53 | 20.83 | 31.55 |
| 00:03 | 3 | 16.8 | 81 | 2,147,483,647 | 0.29 | 0 | 2.06 | 8.34 | 50.76 | 0 | 18.53 | 20.84 | 33.25 |
| 00:00 | 3 | 16.9 | 81 | 2,147,483,647 | 0.29 | 0 | 2.06 | 9.97 | 55.26 | 0 | 17.81 | 19.91 | 31.6 |
| Wednesday 26 August 2026 | |||||||||||||
| 23:56 | 3 | 16.9 | 81 | 2,147,483,647 | 0.29 | 0 | 2.05 | 7.77 | 52.54 | 0 | 16.39 | 19.92 | 31.62 |
| 23:52 | 3 | 16.9 | 81 | 2,147,483,647 | 0.29 | 0 | 2.04 | 10.92 | 52.15 | 0 | 17.1 | 21.35 | 32.24 |
| 23:51 | 3 | 16.9 | 81 | 2,147,483,647 | 0.29 | 0 | 2.04 | 10.18 | 50.81 | 0 | 17.81 | 21.35 | 32.24 |
| 23:48 | 3 | 17 | 81 | 2,147,483,647 | 0.29 | 0 | 2.02 | 10.23 | 55.7 | 0 | 17.1 | 21.37 | 33.41 |
| 23:47 | 3 | 17 | 81 | 2,147,483,647 | 0.31 | 0 | 2.02 | 15.69 | 52.33 | 0 | 17.81 | 22.32 | 35.13 |
| 23:46 | 3 | 17 | 81 | 2,147,483,647 | 0.29 | 0 | 2.03 | 9.38 | 54.08 | 0 | 16.39 | 19.5 | 30.06 |
| 23:45 | 3 | 17 | 81 | 2,147,483,647 | 0.28 | 0 | 2.02 | 10.37 | 54.56 | 0 | 17.1 | 19.98 | 32.9 |
| 23:44 | 3 | 17 | 80 | 2,147,483,647 | 0.29 | 0 | 2.02 | 10.11 | 54.64 | 0 | 18.53 | 21.87 | 33.49 |